Aberdeen, New Jersey
Current Conditions -  °F | °C
As of 11:55 AM on Friday 31 Oct 2014 (Local Time) from KLDJ Reporting Station
Overcast Overcast  
Wind Chill: 55°   Ceiling: 4700
Heat Index: 55°   Visibility: 10mi
Dew Point: 37°   Wind: 6mph
Humidity: 52%   Direction: 40°NE
Pressure: 29.99"   Gusts: NA
Location:  40.4118°N, 74.2499°W
Report Text: KLDJ 311555Z AUTO 04005KT 10SM BKN047 OVC050 13/03 A2999 RMK AO2 T01250030
Loading
Personal Weather Stations






























Interactive Weather Map New forecast layout! Learn more

10-Day Weather Forecast

Advertisements
Track Severe Weather on mobile